sensor_id;sensor_type;location;lat;lon;timestamp;temperature;humidity
3281;DHT22;1652;51.318;6.202;2023-10-08T00:00:33;17.20;99.90
3281;DHT22;1652;51.318;6.202;2023-10-08T00:03:13;17.20;99.90
3281;DHT22;1652;51.318;6.202;2023-10-08T00:05:41;17.20;99.90
3281;DHT22;1652;51.318;6.202;2023-10-08T00:08:09;17.20;99.90
3281;DHT22;1652;51.318;6.202;2023-10-08T00:10:37;17.10;99.90
3281;DHT22;1652;51.318;6.202;2023-10-08T00:13:07;17.20;99.90
3281;DHT22;1652;51.318;6.202;2023-10-08T00:15:36;17.10;99.90
3281;DHT22;1652;51.318;6.202;2023-10-08T00:18:04;17.20;99.90
3281;DHT22;1652;51.318;6.202;2023-10-08T00:20:34;17.10;99.90
3281;DHT22;1652;51.318;6.202;2023-10-08T00:23:09;17.20;99.90
3281;DHT22;1652;51.318;6.202;2023-10-08T00:25:37;17.10;99.90
3281;DHT22;1652;51.318;6.202;2023-10-08T00:28:10;17.10;99.90
3281;DHT22;1652;51.318;6.202;2023-10-08T00:30:43;17.00;99.90
3281;DHT22;1652;51.318;6.202;2023-10-08T00:33:11;17.00;99.90
3281;DHT22;1652;51.318;6.202;2023-10-08T00:35:42;17.00;99.90
3281;DHT22;1652;51.318;6.202;2023-10-08T00:38:09;16.90;99.90
3281;DHT22;1652;51.318;6.202;2023-10-08T00:40:42;16.80;99.90
3281;DHT22;1652;51.318;6.202;2023-10-08T00:43:34;16.80;99.90
3281;DHT22;1652;51.318;6.202;2023-10-08T00:46:03;16.80;99.90
3281;DHT22;1652;51.318;6.202;2023-10-08T00:48:31;16.80;99.90
3281;DHT22;1652;51.318;6.202;2023-10-08T00:51:05;16.70;99.90
3281;DHT22;1652;51.318;6.202;2023-10-08T00:54:03;16.60;99.90
3281;DHT22;1652;51.318;6.202;2023-10-08T00:56:35;16.50;99.90
3281;DHT22;1652;51.318;6.202;2023-10-08T00:59:24;16.40;99.90
3281;DHT22;1652;51.318;6.202;2023-10-08T01:01:52;16.40;99.90
3281;DHT22;1652;51.318;6.202;2023-10-08T01:04:26;16.30;99.90
3281;DHT22;1652;51.318;6.202;2023-10-08T01:07:00;16.30;99.90
3281;DHT22;1652;51.318;6.202;2023-10-08T01:09:39;16.20;99.90
3281;DHT22;1652;51.318;6.202;2023-10-08T01:15:02;16.20;99.90
3281;DHT22;1652;51.318;6.202;2023-10-08T01:17:50;16.10;99.90
3281;DHT22;1652;51.318;6.202;2023-10-08T01:20:46;16.10;99.90
3281;DHT22;1652;51.318;6.202;2023-10-08T01:23:13;16.00;99.90
3281;DHT22;1652;51.318;6.202;2023-10-08T01:25:41;16.00;99.90
3281;DHT22;1652;51.318;6.202;2023-10-08T01:28:09;16.00;99.90
3281;DHT22;1652;51.318;6.202;2023-10-08T01:30:59;16.00;99.90
3281;DHT22;1652;51.318;6.202;2023-10-08T01:33:31;16.00;99.90
3281;DHT22;1652;51.318;6.202;2023-10-08T01:35:59;16.00;99.90
3281;DHT22;1652;51.318;6.202;2023-10-08T01:38:33;15.90;99.90
3281;DHT22;1652;51.318;6.202;2023-10-08T01:41:00;15.90;99.90
3281;DHT22;1652;51.318;6.202;2023-10-08T01:43:32;15.90;99.90
3281;DHT22;1652;51.318;6.202;2023-10-08T01:46:02;15.80;99.90
3281;DHT22;1652;51.318;6.202;2023-10-08T01:48:30;15.80;99.90
3281;DHT22;1652;51.318;6.202;2023-10-08T01:51:04;15.90;99.90
3281;DHT22;1652;51.318;6.202;2023-10-08T01:53:38;15.80;99.90
3281;DHT22;1652;51.318;6.202;2023-10-08T01:56:05;15.70;99.90
3281;DHT22;1652;51.318;6.202;2023-10-08T01:58:32;15.70;99.90
3281;DHT22;1652;51.318;6.202;2023-10-08T02:01:02;15.70;99.90
3281;DHT22;1652;51.318;6.202;2023-10-08T02:03:32;15.70;99.90
3281;DHT22;1652;51.318;6.202;2023-10-08T02:05:59;15.80;99.90
3281;DHT22;1652;51.318;6.202;2023-10-08T02:08:26;15.80;99.90
3281;DHT22;1652;51.318;6.202;2023-10-08T02:10:54;15.80;99.90
3281;DHT22;1652;51.318;6.202;2023-10-08T02:13:20;15.90;99.90
3281;DHT22;1652;51.318;6.202;2023-10-08T02:15:51;15.80;99.90
3281;DHT22;1652;51.318;6.202;2023-10-08T02:18:21;15.90;99.90
3281;DHT22;1652;51.318;6.202;2023-10-08T02:20:52;15.90;99.90
3281;DHT22;1652;51.318;6.202;2023-10-08T02:23:19;16.00;99.90
3281;DHT22;1652;51.318;6.202;2023-10-08T02:25:47;16.00;99.90
3281;DHT22;1652;51.318;6.202;2023-10-08T02:28:15;16.00;99.90
3281;DHT22;1652;51.318;6.202;2023-10-08T02:30:43;16.00;99.90
3281;DHT22;1652;51.318;6.202;2023-10-08T02:33:10;15.90;99.90
3281;DHT22;1652;51.318;6.202;2023-10-08T02:35:45;15.90;99.90
3281;DHT22;1652;51.318;6.202;2023-10-08T02:38:15;15.90;99.90
3281;DHT22;1652;51.318;6.202;2023-10-08T02:40:48;15.90;99.90
3281;DHT22;1652;51.318;6.202;2023-10-08T02:43:16;15.90;99.90
3281;DHT22;1652;51.318;6.202;2023-10-08T02:45:45;16.00;99.90
3281;DHT22;1652;51.318;6.202;2023-10-08T02:48:17;16.00;99.90
3281;DHT22;1652;51.318;6.202;2023-10-08T02:50:45;15.90;99.90
3281;DHT22;1652;51.318;6.202;2023-10-08T02:53:12;15.90;99.90
3281;DHT22;1652;51.318;6.202;2023-10-08T02:55:45;16.00;99.90
3281;DHT22;1652;51.318;6.202;2023-10-08T02:58:14;15.90;99.90
3281;DHT22;1652;51.318;6.202;2023-10-08T03:00:43;15.90;99.90
3281;DHT22;1652;51.318;6.202;2023-10-08T03:03:10;15.90;99.90
3281;DHT22;1652;51.318;6.202;2023-10-08T03:05:47;15.80;99.90
3281;DHT22;1652;51.318;6.202;2023-10-08T03:08:15;15.80;99.90
3281;DHT22;1652;51.318;6.202;2023-10-08T03:10:47;15.70;99.90
3281;DHT22;1652;51.318;6.202;2023-10-08T03:13:22;15.80;99.90
3281;DHT22;1652;51.318;6.202;2023-10-08T03:15:49;15.70;99.90
3281;DHT22;1652;51.318;6.202;2023-10-08T03:18:29;15.80;99.90
3281;DHT22;1652;51.318;6.202;2023-10-08T03:21:04;15.90;99.90
3281;DHT22;1652;51.318;6.202;2023-10-08T03:23:32;15.80;99.90
3281;DHT22;1652;51.318;6.202;2023-10-08T03:26:02;15.80;99.90
3281;DHT22;1652;51.318;6.202;2023-10-08T03:29:00;15.70;99.90
3281;DHT22;1652;51.318;6.202;2023-10-08T03:31:27;15.60;99.90
3281;DHT22;1652;51.318;6.202;2023-10-08T03:34:14;15.60;99.90
3281;DHT22;1652;51.318;6.202;2023-10-08T03:36:42;15.70;99.90
3281;DHT22;1652;51.318;6.202;2023-10-08T03:41:44;15.70;99.90
3281;DHT22;1652;51.318;6.202;2023-10-08T03:44:30;15.70;99.90
3281;DHT22;1652;51.318;6.202;2023-10-08T03:46:57;15.70;99.90
3281;DHT22;1652;51.318;6.202;2023-10-08T03:49:24;15.80;99.90
3281;DHT22;1652;51.318;6.202;2023-10-08T03:51:52;15.80;99.90
3281;DHT22;1652;51.318;6.202;2023-10-08T03:54:22;15.70;99.90
3281;DHT22;1652;51.318;6.202;2023-10-08T03:57:02;15.60;99.90
3281;DHT22;1652;51.318;6.202;2023-10-08T03:59:39;15.60;99.90
3281;DHT22;1652;51.318;6.202;2023-10-08T04:02:10;15.60;99.90
3281;DHT22;1652;51.318;6.202;2023-10-08T04:05:00;15.50;99.90
3281;DHT22;1652;51.318;6.202;2023-10-08T04:07:42;15.60;99.90
3281;DHT22;1652;51.318;6.202;2023-10-08T04:10:29;15.50;99.90
3281;DHT22;1652;51.318;6.202;2023-10-08T04:13:09;15.50;99.90
3281;DHT22;1652;51.318;6.202;2023-10-08T04:15:37;15.40;99.90
3281;DHT22;1652;51.318;6.202;2023-10-08T04:18:08;15.40;99.90
3281;DHT22;1652;51.318;6.202;2023-10-08T04:20:35;15.40;99.90
3281;DHT22;1652;51.318;6.202;2023-10-08T04:23:08;15.30;99.90
3281;DHT22;1652;51.318;6.202;2023-10-08T04:25:45;15.30;99.90
3281;DHT22;1652;51.318;6.202;2023-10-08T04:28:13;15.40;99.90
3281;DHT22;1652;51.318;6.202;2023-10-08T04:30:47;15.30;99.90
3281;DHT22;1652;51.318;6.202;2023-10-08T04:33:15;15.30;99.90
3281;DHT22;1652;51.318;6.202;2023-10-08T04:35:44;15.40;99.90
3281;DHT22;1652;51.318;6.202;2023-10-08T04:38:25;15.40;99.90
3281;DHT22;1652;51.318;6.202;2023-10-08T04:40:53;15.30;99.90
3281;DHT22;1652;51.318;6.202;2023-10-08T04:43:24;15.30;99.90
3281;DHT22;1652;51.318;6.202;2023-10-08T04:45:55;15.30;99.90
3281;DHT22;1652;51.318;6.202;2023-10-08T04:48:25;15.20;99.90
3281;DHT22;1652;51.318;6.202;2023-10-08T04:50:54;15.20;99.90
3281;DHT22;1652;51.318;6.202;2023-10-08T04:53:29;15.30;99.90
3281;DHT22;1652;51.318;6.202;2023-10-08T04:56:05;15.20;99.90
3281;DHT22;1652;51.318;6.202;2023-10-08T04:58:34;15.20;99.90
3281;DHT22;1652;51.318;6.202;2023-10-08T05:01:04;15.20;99.90
3281;DHT22;1652;51.318;6.202;2023-10-08T05:03:51;15.20;99.90
3281;DHT22;1652;51.318;6.202;2023-10-08T05:06:27;15.20;99.90
3281;DHT22;1652;51.318;6.202;2023-10-08T05:09:05;15.10;99.90
3281;DHT22;1652;51.318;6.202;2023-10-08T05:11:50;15.10;99.90
3281;DHT22;1652;51.318;6.202;2023-10-08T05:14:19;15.00;99.90
3281;DHT22;1652;51.318;6.202;2023-10-08T05:17:05;15.10;99.90
3281;DHT22;1652;51.318;6.202;2023-10-08T05:19:40;15.10;99.90
3281;DHT22;1652;51.318;6.202;2023-10-08T05:22:08;15.10;99.90
3281;DHT22;1652;51.318;6.202;2023-10-08T05:24:48;15.20;99.90
3281;DHT22;1652;51.318;6.202;2023-10-08T05:27:37;15.00;99.90
3281;DHT22;1652;51.318;6.202;2023-10-08T05:30:05;15.00;99.90
3281;DHT22;1652;51.318;6.202;2023-10-08T05:32:43;15.10;99.90
3281;DHT22;1652;51.318;6.202;2023-10-08T05:35:30;15.00;99.90
3281;DHT22;1652;51.318;6.202;2023-10-08T05:38:15;15.00;99.90
3281;DHT22;1652;51.318;6.202;2023-10-08T05:40:58;14.90;99.90
3281;DHT22;1652;51.318;6.202;2023-10-08T05:43:33;14.90;99.90
3281;DHT22;1652;51.318;6.202;2023-10-08T05:46:13;14.90;99.90
3281;DHT22;1652;51.318;6.202;2023-10-08T05:48:53;14.80;99.90
3281;DHT22;1652;51.318;6.202;2023-10-08T05:51:35;14.80;99.90
3281;DHT22;1652;51.318;6.202;2023-10-08T05:54:19;14.80;99.90
3281;DHT22;1652;51.318;6.202;2023-10-08T05:56:53;14.90;99.90
3281;DHT22;1652;51.318;6.202;2023-10-08T06:02:27;14.90;99.90
3281;DHT22;1652;51.318;6.202;2023-10-08T06:05:06;14.80;99.90
3281;DHT22;1652;51.318;6.202;2023-10-08T06:07:46;14.80;99.90
3281;DHT22;1652;51.318;6.202;2023-10-08T06:10:27;15.00;99.90
3281;DHT22;1652;51.318;6.202;2023-10-08T06:13:00;15.00;99.90
3281;DHT22;1652;51.318;6.202;2023-10-08T06:15:38;14.90;99.90
3281;DHT22;1652;51.318;6.202;2023-10-08T06:18:40;14.90;99.90
3281;DHT22;1652;51.318;6.202;2023-10-08T06:21:07;15.00;99.90
3281;DHT22;1652;51.318;6.202;2023-10-08T06:23:37;15.00;99.90
3281;DHT22;1652;51.318;6.202;2023-10-08T06:26:04;15.00;99.90
3281;DHT22;1652;51.318;6.202;2023-10-08T06:28:38;15.10;99.90
3281;DHT22;1652;51.318;6.202;2023-10-08T06:31:06;15.10;99.90
3281;DHT22;1652;51.318;6.202;2023-10-08T06:33:39;15.20;99.90
3281;DHT22;1652;51.318;6.202;2023-10-08T06:36:09;15.30;99.90
3281;DHT22;1652;51.318;6.202;2023-10-08T06:38:41;15.30;99.90
3281;DHT22;1652;51.318;6.202;2023-10-08T06:41:10;15.30;99.90
3281;DHT22;1652;51.318;6.202;2023-10-08T06:43:49;15.30;99.90
3281;DHT22;1652;51.318;6.202;2023-10-08T06:46:18;15.20;99.90
3281;DHT22;1652;51.318;6.202;2023-10-08T06:48:49;15.20;99.90
3281;DHT22;1652;51.318;6.202;2023-10-08T06:51:16;15.30;99.90
3281;DHT22;1652;51.318;6.202;2023-10-08T06:53:47;15.40;99.90
3281;DHT22;1652;51.318;6.202;2023-10-08T06:56:15;15.50;99.90
3281;DHT22;1652;51.318;6.202;2023-10-08T06:58:43;15.60;99.90
3281;DHT22;1652;51.318;6.202;2023-10-08T07:01:21;15.70;99.90
3281;DHT22;1652;51.318;6.202;2023-10-08T07:03:48;15.80;99.90
3281;DHT22;1652;51.318;6.202;2023-10-08T07:06:16;15.80;99.90
3281;DHT22;1652;51.318;6.202;2023-10-08T07:08:44;15.80;99.90
3281;DHT22;1652;51.318;6.202;2023-10-08T07:11:17;15.80;99.90
3281;DHT22;1652;51.318;6.202;2023-10-08T07:13:44;15.90;99.90
3281;DHT22;1652;51.318;6.202;2023-10-08T07:16:11;16.10;99.90
3281;DHT22;1652;51.318;6.202;2023-10-08T07:18:38;16.50;99.90
3281;DHT22;1652;51.318;6.202;2023-10-08T07:21:06;16.90;99.90
3281;DHT22;1652;51.318;6.202;2023-10-08T07:23:39;17.20;99.90
3281;DHT22;1652;51.318;6.202;2023-10-08T07:26:26;17.40;99.90
3281;DHT22;1652;51.318;6.202;2023-10-08T07:29:04;17.30;99.90
3281;DHT22;1652;51.318;6.202;2023-10-08T07:31:39;17.30;99.90
3281;DHT22;1652;51.318;6.202;2023-10-08T07:34:09;17.10;99.90
3281;DHT22;1652;51.318;6.202;2023-10-08T07:36:44;16.90;99.90
3281;DHT22;1652;51.318;6.202;2023-10-08T07:41:42;16.60;99.90
3281;DHT22;1652;51.318;6.202;2023-10-08T07:44:10;16.60;99.90
3281;DHT22;1652;51.318;6.202;2023-10-08T07:46:37;16.70;99.90
3281;DHT22;1652;51.318;6.202;2023-10-08T07:49:04;16.80;99.90
3281;DHT22;1652;51.318;6.202;2023-10-08T07:51:32;16.80;99.90
3281;DHT22;1652;51.318;6.202;2023-10-08T07:53:59;16.90;99.90
3281;DHT22;1652;51.318;6.202;2023-10-08T07:56:26;16.80;99.90
3281;DHT22;1652;51.318;6.202;2023-10-08T07:58:53;16.70;99.90
3281;DHT22;1652;51.318;6.202;2023-10-08T08:01:23;16.80;99.90
3281;DHT22;1652;51.318;6.202;2023-10-08T08:03:54;16.80;99.90
3281;DHT22;1652;51.318;6.202;2023-10-08T08:06:21;16.80;99.90
3281;DHT22;1652;51.318;6.202;2023-10-08T08:08:49;16.90;99.90
3281;DHT22;1652;51.318;6.202;2023-10-08T08:11:16;17.00;99.90
3281;DHT22;1652;51.318;6.202;2023-10-08T08:13:51;17.20;99.90
3281;DHT22;1652;51.318;6.202;2023-10-08T08:16:18;17.20;99.90
3281;DHT22;1652;51.318;6.202;2023-10-08T08:18:48;17.20;99.90
3281;DHT22;1652;51.318;6.202;2023-10-08T08:21:19;17.30;99.90
3281;DHT22;1652;51.318;6.202;2023-10-08T08:23:47;17.60;99.90
3281;DHT22;1652;51.318;6.202;2023-10-08T08:26:21;17.60;99.90
3281;DHT22;1652;51.318;6.202;2023-10-08T08:28:57;17.50;99.90
3281;DHT22;1652;51.318;6.202;2023-10-08T08:31:24;17.50;99.90
3281;DHT22;1652;51.318;6.202;2023-10-08T08:33:54;17.50;99.90
3281;DHT22;1652;51.318;6.202;2023-10-08T08:36:27;17.50;99.90
3281;DHT22;1652;51.318;6.202;2023-10-08T08:38:55;17.60;99.90
3281;DHT22;1652;51.318;6.202;2023-10-08T08:41:22;17.70;99.90
3281;DHT22;1652;51.318;6.202;2023-10-08T08:43:52;18.00;99.90
3281;DHT22;1652;51.318;6.202;2023-10-08T08:46:32;18.10;99.90
3281;DHT22;1652;51.318;6.202;2023-10-08T08:49:04;18.30;99.90
3281;DHT22;1652;51.318;6.202;2023-10-08T08:51:37;18.40;99.90
3281;DHT22;1652;51.318;6.202;2023-10-08T08:54:05;18.50;99.90
3281;DHT22;1652;51.318;6.202;2023-10-08T08:56:37;18.60;99.90
3281;DHT22;1652;51.318;6.202;2023-10-08T08:59:05;18.80;99.90
3281;DHT22;1652;51.318;6.202;2023-10-08T09:01:32;18.90;99.90
3281;DHT22;1652;51.318;6.202;2023-10-08T09:04:01;18.90;99.90
3281;DHT22;1652;51.318;6.202;2023-10-08T09:06:28;19.00;99.90
3281;DHT22;1652;51.318;6.202;2023-10-08T09:08:55;18.90;99.90
3281;DHT22;1652;51.318;6.202;2023-10-08T09:11:40;18.70;99.90
3281;DHT22;1652;51.318;6.202;2023-10-08T09:14:09;18.70;99.90
3281;DHT22;1652;51.318;6.202;2023-10-08T09:16:39;18.70;99.90
3281;DHT22;1652;51.318;6.202;2023-10-08T09:19:06;18.70;99.90
3281;DHT22;1652;51.318;6.202;2023-10-08T09:21:38;18.80;99.90
3281;DHT22;1652;51.318;6.202;2023-10-08T09:24:07;19.20;99.90
3281;DHT22;1652;51.318;6.202;2023-10-08T09:26:38;19.30;99.90
3281;DHT22;1652;51.318;6.202;2023-10-08T09:29:06;19.10;99.90
3281;DHT22;1652;51.318;6.202;2023-10-08T09:31:34;19.00;99.90
3281;DHT22;1652;51.318;6.202;2023-10-08T09:34:04;19.00;99.90
3281;DHT22;1652;51.318;6.202;2023-10-08T09:36:31;19.10;99.90
3281;DHT22;1652;51.318;6.202;2023-10-08T09:41:47;19.20;99.90
3281;DHT22;1652;51.318;6.202;2023-10-08T09:44:15;19.10;99.90
3281;DHT22;1652;51.318;6.202;2023-10-08T09:46:44;19.40;99.90
3281;DHT22;1652;51.318;6.202;2023-10-08T09:49:15;19.20;99.90
3281;DHT22;1652;51.318;6.202;2023-10-08T09:51:43;18.90;99.90
3281;DHT22;1652;51.318;6.202;2023-10-08T09:54:18;18.80;99.90
3281;DHT22;1652;51.318;6.202;2023-10-08T09:56:47;19.00;99.90
3281;DHT22;1652;51.318;6.202;2023-10-08T09:59:16;19.00;99.90
3281;DHT22;1652;51.318;6.202;2023-10-08T10:01:43;19.00;99.90
3281;DHT22;1652;51.318;6.202;2023-10-08T10:04:11;19.10;99.90
3281;DHT22;1652;51.318;6.202;2023-10-08T10:06:42;18.80;99.90
3281;DHT22;1652;51.318;6.202;2023-10-08T10:09:20;18.80;99.90
3281;DHT22;1652;51.318;6.202;2023-10-08T10:11:49;18.70;99.90
3281;DHT22;1652;51.318;6.202;2023-10-08T10:14:17;18.70;99.90
3281;DHT22;1652;51.318;6.202;2023-10-08T10:19:36;19.10;99.90
3281;DHT22;1652;51.318;6.202;2023-10-08T10:22:03;19.00;99.90
3281;DHT22;1652;51.318;6.202;2023-10-08T10:24:35;19.10;99.90
3281;DHT22;1652;51.318;6.202;2023-10-08T10:27:20;19.10;99.90
3281;DHT22;1652;51.318;6.202;2023-10-08T10:29:48;19.00;99.90
3281;DHT22;1652;51.318;6.202;2023-10-08T10:32:15;19.00;99.90
3281;DHT22;1652;51.318;6.202;2023-10-08T10:34:43;19.30;99.90
3281;DHT22;1652;51.318;6.202;2023-10-08T10:37:11;19.30;99.90
3281;DHT22;1652;51.318;6.202;2023-10-08T10:39:54;19.50;99.90
3281;DHT22;1652;51.318;6.202;2023-10-08T10:42:22;19.50;99.90
3281;DHT22;1652;51.318;6.202;2023-10-08T10:44:49;19.60;99.90
3281;DHT22;1652;51.318;6.202;2023-10-08T10:47:17;19.90;99.90
3281;DHT22;1652;51.318;6.202;2023-10-08T10:49:47;19.90;99.90
3281;DHT22;1652;51.318;6.202;2023-10-08T10:52:22;20.10;99.90
3281;DHT22;1652;51.318;6.202;2023-10-08T10:55:04;19.80;99.90
3281;DHT22;1652;51.318;6.202;2023-10-08T10:57:46;19.60;99.90
3281;DHT22;1652;51.318;6.202;2023-10-08T11:00:25;19.40;99.90
3281;DHT22;1652;51.318;6.202;2023-10-08T11:03:03;19.50;99.90
3281;DHT22;1652;51.318;6.202;2023-10-08T11:05:32;19.60;99.90
3281;DHT22;1652;51.318;6.202;2023-10-08T11:08:06;19.50;99.90
3281;DHT22;1652;51.318;6.202;2023-10-08T11:10:37;19.50;99.90
3281;DHT22;1652;51.318;6.202;2023-10-08T11:13:13;19.60;99.90
3281;DHT22;1652;51.318;6.202;2023-10-08T11:15:45;19.60;99.90
3281;DHT22;1652;51.318;6.202;2023-10-08T11:18:18;19.50;99.90
3281;DHT22;1652;51.318;6.202;2023-10-08T11:20:46;19.60;99.90
3281;DHT22;1652;51.318;6.202;2023-10-08T11:26:01;19.60;99.90
3281;DHT22;1652;51.318;6.202;2023-10-08T11:28:34;19.40;99.90
3281;DHT22;1652;51.318;6.202;2023-10-08T11:31:04;19.50;99.90
3281;DHT22;1652;51.318;6.202;2023-10-08T11:36:04;19.40;99.90
3281;DHT22;1652;51.318;6.202;2023-10-08T11:38:46;19.40;99.90
3281;DHT22;1652;51.318;6.202;2023-10-08T11:41:18;19.40;99.90
3281;DHT22;1652;51.318;6.202;2023-10-08T11:43:49;19.20;99.90
3281;DHT22;1652;51.318;6.202;2023-10-08T11:46:31;19.10;99.90
3281;DHT22;1652;51.318;6.202;2023-10-08T11:49:10;19.00;99.90
3281;DHT22;1652;51.318;6.202;2023-10-08T11:51:45;19.10;99.90
3281;DHT22;1652;51.318;6.202;2023-10-08T11:54:12;19.20;99.90
3281;DHT22;1652;51.318;6.202;2023-10-08T11:56:42;18.90;99.90
3281;DHT22;1652;51.318;6.202;2023-10-08T11:59:09;18.80;99.90
3281;DHT22;1652;51.318;6.202;2023-10-08T12:01:36;18.90;99.90
3281;DHT22;1652;51.318;6.202;2023-10-08T12:04:05;19.10;99.90
3281;DHT22;1652;51.318;6.202;2023-10-08T12:06:40;19.20;99.90
3281;DHT22;1652;51.318;6.202;2023-10-08T12:09:14;19.00;99.90
3281;DHT22;1652;51.318;6.202;2023-10-08T12:11:41;19.10;99.90
3281;DHT22;1652;51.318;6.202;2023-10-08T12:14:09;19.00;99.90
3281;DHT22;1652;51.318;6.202;2023-10-08T12:16:38;19.00;99.90
3281;DHT22;1652;51.318;6.202;2023-10-08T12:19:06;19.30;99.90
3281;DHT22;1652;51.318;6.202;2023-10-08T12:21:43;19.20;99.90
3281;DHT22;1652;51.318;6.202;2023-10-08T12:24:13;19.30;99.90
3281;DHT22;1652;51.318;6.202;2023-10-08T12:26:41;19.40;99.90
3281;DHT22;1652;51.318;6.202;2023-10-08T12:29:13;19.40;99.90
3281;DHT22;1652;51.318;6.202;2023-10-08T12:31:41;19.30;99.90
3281;DHT22;1652;51.318;6.202;2023-10-08T12:34:08;19.60;99.90
3281;DHT22;1652;51.318;6.202;2023-10-08T12:36:39;19.70;99.90
3281;DHT22;1652;51.318;6.202;2023-10-08T12:41:42;19.60;99.90
3281;DHT22;1652;51.318;6.202;2023-10-08T12:44:11;19.90;99.90
3281;DHT22;1652;51.318;6.202;2023-10-08T12:46:39;20.00;99.90
3281;DHT22;1652;51.318;6.202;2023-10-08T12:49:10;20.10;99.90
3281;DHT22;1652;51.318;6.202;2023-10-08T12:51:36;20.10;99.90
3281;DHT22;1652;51.318;6.202;2023-10-08T12:54:08;20.10;99.90
3281;DHT22;1652;51.318;6.202;2023-10-08T12:56:39;20.00;99.90
3281;DHT22;1652;51.318;6.202;2023-10-08T12:59:12;20.10;99.90
3281;DHT22;1652;51.318;6.202;2023-10-08T13:01:49;20.20;99.90
3281;DHT22;1652;51.318;6.202;2023-10-08T13:04:22;20.10;99.90
3281;DHT22;1652;51.318;6.202;2023-10-08T13:07:01;20.00;99.90
3281;DHT22;1652;51.318;6.202;2023-10-08T13:09:30;19.90;99.90
3281;DHT22;1652;51.318;6.202;2023-10-08T13:12:04;19.80;99.90
3281;DHT22;1652;51.318;6.202;2023-10-08T13:14:33;19.70;99.90
3281;DHT22;1652;51.318;6.202;2023-10-08T13:17:03;19.80;99.90
3281;DHT22;1652;51.318;6.202;2023-10-08T13:19:30;19.90;99.90
3281;DHT22;1652;51.318;6.202;2023-10-08T13:22:01;19.90;99.90
3281;DHT22;1652;51.318;6.202;2023-10-08T13:24:28;19.90;99.90
3281;DHT22;1652;51.318;6.202;2023-10-08T13:26:55;20.10;99.90
3281;DHT22;1652;51.318;6.202;2023-10-08T13:29:25;20.30;99.90
3281;DHT22;1652;51.318;6.202;2023-10-08T13:32:00;20.50;99.90
3281;DHT22;1652;51.318;6.202;2023-10-08T13:34:27;20.30;99.90
3281;DHT22;1652;51.318;6.202;2023-10-08T13:36:54;20.30;99.90
3281;DHT22;1652;51.318;6.202;2023-10-08T13:39:23;20.50;99.90
3281;DHT22;1652;51.318;6.202;2023-10-08T13:41:50;20.50;99.90
3281;DHT22;1652;51.318;6.202;2023-10-08T13:44:19;20.20;99.90
3281;DHT22;1652;51.318;6.202;2023-10-08T13:46:57;20.30;99.90
3281;DHT22;1652;51.318;6.202;2023-10-08T13:49:27;20.30;99.90
3281;DHT22;1652;51.318;6.202;2023-10-08T13:51:53;20.50;99.90
3281;DHT22;1652;51.318;6.202;2023-10-08T13:54:24;20.70;99.90
3281;DHT22;1652;51.318;6.202;2023-10-08T13:56:57;20.50;99.90
3281;DHT22;1652;51.318;6.202;2023-10-08T13:59:27;20.40;99.90
3281;DHT22;1652;51.318;6.202;2023-10-08T14:01:59;20.20;99.90
3281;DHT22;1652;51.318;6.202;2023-10-08T14:04:29;20.10;99.90
3281;DHT22;1652;51.318;6.202;2023-10-08T14:07:05;20.00;99.90
3281;DHT22;1652;51.318;6.202;2023-10-08T14:09:32;20.10;99.90
3281;DHT22;1652;51.318;6.202;2023-10-08T14:12:05;19.90;99.90
3281;DHT22;1652;51.318;6.202;2023-10-08T14:14:35;19.60;99.90
3281;DHT22;1652;51.318;6.202;2023-10-08T14:17:05;19.60;99.90
3281;DHT22;1652;51.318;6.202;2023-10-08T14:19:35;19.60;99.90
3281;DHT22;1652;51.318;6.202;2023-10-08T14:22:06;19.70;99.90
3281;DHT22;1652;51.318;6.202;2023-10-08T14:24:37;19.80;99.90
3281;DHT22;1652;51.318;6.202;2023-10-08T14:27:05;19.70;99.90
3281;DHT22;1652;51.318;6.202;2023-10-08T14:29:39;19.60;99.90
3281;DHT22;1652;51.318;6.202;2023-10-08T14:32:17;19.50;99.90
3281;DHT22;1652;51.318;6.202;2023-10-08T14:34:44;19.50;99.90
3281;DHT22;1652;51.318;6.202;2023-10-08T14:37:21;19.60;99.90
3281;DHT22;1652;51.318;6.202;2023-10-08T14:40:07;19.60;99.90
3281;DHT22;1652;51.318;6.202;2023-10-08T14:42:53;19.70;99.90
3281;DHT22;1652;51.318;6.202;2023-10-08T14:45:29;19.40;99.90
3281;DHT22;1652;51.318;6.202;2023-10-08T14:47:58;19.20;99.90
3281;DHT22;1652;51.318;6.202;2023-10-08T14:50:26;19.10;99.90
3281;DHT22;1652;51.318;6.202;2023-10-08T14:52:54;19.10;99.90
3281;DHT22;1652;51.318;6.202;2023-10-08T14:55:24;19.10;99.90
3281;DHT22;1652;51.318;6.202;2023-10-08T14:57:51;19.10;99.90
3281;DHT22;1652;51.318;6.202;2023-10-08T15:00:22;19.00;99.90
3281;DHT22;1652;51.318;6.202;2023-10-08T15:02:54;19.20;99.90
3281;DHT22;1652;51.318;6.202;2023-10-08T15:05:22;19.20;99.90
3281;DHT22;1652;51.318;6.202;2023-10-08T15:07:50;19.10;99.90
3281;DHT22;1652;51.318;6.202;2023-10-08T15:10:18;19.30;99.90
3281;DHT22;1652;51.318;6.202;2023-10-08T15:12:46;19.20;99.90
3281;DHT22;1652;51.318;6.202;2023-10-08T15:15:15;19.30;99.90
3281;DHT22;1652;51.318;6.202;2023-10-08T15:17:43;19.50;99.90
3281;DHT22;1652;51.318;6.202;2023-10-08T15:20:12;19.40;99.90
3281;DHT22;1652;51.318;6.202;2023-10-08T15:22:44;19.40;99.90
3281;DHT22;1652;51.318;6.202;2023-10-08T15:25:16;19.40;99.90
3281;DHT22;1652;51.318;6.202;2023-10-08T15:27:46;19.40;99.90
3281;DHT22;1652;51.318;6.202;2023-10-08T15:30:17;19.40;99.90
3281;DHT22;1652;51.318;6.202;2023-10-08T15:32:49;19.30;99.90
3281;DHT22;1652;51.318;6.202;2023-10-08T15:35:19;19.30;99.90
3281;DHT22;1652;51.318;6.202;2023-10-08T15:37:52;19.10;99.90
3281;DHT22;1652;51.318;6.202;2023-10-08T15:40:19;18.90;99.90
3281;DHT22;1652;51.318;6.202;2023-10-08T15:42:49;18.90;99.90
3281;DHT22;1652;51.318;6.202;2023-10-08T15:45:19;18.90;99.90
3281;DHT22;1652;51.318;6.202;2023-10-08T15:47:47;18.80;99.90
3281;DHT22;1652;51.318;6.202;2023-10-08T15:50:17;18.70;99.90
3281;DHT22;1652;51.318;6.202;2023-10-08T15:52:48;18.70;99.90
3281;DHT22;1652;51.318;6.202;2023-10-08T15:55:17;18.70;99.90
3281;DHT22;1652;51.318;6.202;2023-10-08T15:57:45;18.60;99.90
3281;DHT22;1652;51.318;6.202;2023-10-08T16:00:13;18.60;99.90
3281;DHT22;1652;51.318;6.202;2023-10-08T16:02:41;18.50;99.90
3281;DHT22;1652;51.318;6.202;2023-10-08T16:05:11;18.40;99.90
3281;DHT22;1652;51.318;6.202;2023-10-08T16:07:38;18.30;99.90
3281;DHT22;1652;51.318;6.202;2023-10-08T16:10:06;18.40;99.90
3281;DHT22;1652;51.318;6.202;2023-10-08T16:12:33;18.30;99.90
3281;DHT22;1652;51.318;6.202;2023-10-08T16:15:00;18.10;99.90
3281;DHT22;1652;51.318;6.202;2023-10-08T16:17:27;18.20;99.90
3281;DHT22;1652;51.318;6.202;2023-10-08T16:19:58;18.10;99.90
3281;DHT22;1652;51.318;6.202;2023-10-08T16:22:25;18.10;99.90
3281;DHT22;1652;51.318;6.202;2023-10-08T16:24:52;17.90;99.90
3281;DHT22;1652;51.318;6.202;2023-10-08T16:27:19;17.80;99.90
3281;DHT22;1652;51.318;6.202;2023-10-08T16:29:46;17.80;99.90
3281;DHT22;1652;51.318;6.202;2023-10-08T16:32:14;17.70;99.90
3281;DHT22;1652;51.318;6.202;2023-10-08T16:34:41;17.60;99.90
3281;DHT22;1652;51.318;6.202;2023-10-08T16:37:12;17.60;99.90
3281;DHT22;1652;51.318;6.202;2023-10-08T16:39:48;17.50;99.90
3281;DHT22;1652;51.318;6.202;2023-10-08T16:42:17;17.40;99.90
3281;DHT22;1652;51.318;6.202;2023-10-08T16:44:45;17.40;99.90
3281;DHT22;1652;51.318;6.202;2023-10-08T16:47:12;17.40;99.90
3281;DHT22;1652;51.318;6.202;2023-10-08T16:49:39;17.50;99.90
3281;DHT22;1652;51.318;6.202;2023-10-08T16:52:06;17.40;99.90
3281;DHT22;1652;51.318;6.202;2023-10-08T16:54:33;17.30;99.90